Time,TemperatureF,DewpointF,PressureIn,WindDirection,WindDirectionDegrees,WindSpeedMPH,WindSpeedGustMPH,Humidity,HourlyPrecipIn,Conditions,Clouds,dailyrainin,SoftwareType,DateUTC
2013-03-30 00:01:00,42.0,39.8,30.25,East,99,0.0,0.0,92,0.00,,,0.01,Wunderground v.1.15,2013-03-30 05:01:00,
2013-03-30 00:11:00,41.6,39.7,30.25,East,98,0.0,0.0,93,0.00,,,0.00,Wunderground v.1.15,2013-03-30 05:11:00,
2013-03-30 00:16:00,41.5,39.6,30.25,East,99,0.0,0.0,93,0.00,,,0.00,Wunderground v.1.15,2013-03-30 05:16:00,
2013-03-30 00:21:00,41.3,39.4,30.25,East,98,0.0,0.0,93,0.00,,,0.00,Wunderground v.1.15,2013-03-30 05:21:00,
2013-03-30 00:31:00,41.2,39.6,30.25,East,98,0.0,0.0,94,0.00,,,0.00,Wunderground v.1.15,2013-03-30 05:31:00,
2013-03-30 00:41:00,41.1,39.5,30.25,East,98,0.0,0.0,94,0.00,,,0.00,Wunderground v.1.15,2013-03-30 05:41:00,
2013-03-30 00:51:00,40.7,39.1,30.25,East,98,0.0,0.0,94,0.00,,,0.00,Wunderground v.1.15,2013-03-30 05:51:00,
2013-03-30 01:01:00,40.3,38.7,30.25,East,98,0.0,0.0,94,0.00,,,0.00,Wunderground v.1.15,2013-03-30 06:01:00,
2013-03-30 01:11:00,39.8,38.2,30.25,East,98,0.0,0.0,94,0.00,,,0.00,Wunderground v.1.15,2013-03-30 06:11:00,
2013-03-30 01:21:00,39.7,38.4,30.25,East,99,0.0,0.0,95,0.00,,,0.00,Wunderground v.1.15,2013-03-30 06:21:00,
2013-03-30 01:31:00,39.6,38.3,30.24,East,98,0.0,0.0,95,0.00,,,0.00,Wunderground v.1.15,2013-03-30 06:31:00,
2013-03-30 01:41:00,39.5,38.2,30.24,East,99,0.0,0.0,95,0.00,,,0.00,Wunderground v.1.15,2013-03-30 06:41:00,
2013-03-30 01:46:00,39.5,38.2,30.24,East,98,0.0,0.0,95,0.00,,,0.00,Wunderground v.1.15,2013-03-30 06:46:00,
2013-03-30 01:56:00,39.2,37.9,30.24,East,98,0.0,0.0,95,0.00,,,0.00,Wunderground v.1.15,2013-03-30 06:56:00,
2013-03-30 02:06:00,39.1,37.8,30.24,East,98,0.0,0.0,95,0.00,,,0.00,Wunderground v.1.15,2013-03-30 07:06:00,
2013-03-30 02:21:00,38.7,37.4,30.24,East,99,0.0,0.0,95,0.00,,,0.00,Wunderground v.1.15,2013-03-30 07:21:00,
2013-03-30 02:31:00,38.5,37.2,30.24,East,99,0.0,0.0,95,0.00,,,0.00,Wunderground v.1.15,2013-03-30 07:31:00,
2013-03-30 02:36:00,38.4,37.1,30.24,East,99,0.0,0.0,95,0.00,,,0.00,Wunderground v.1.15,2013-03-30 07:36:00,
2013-03-30 02:46:00,38.2,37.2,30.24,East,99,0.0,0.0,96,0.00,,,0.00,Wunderground v.1.15,2013-03-30 07:46:00,
2013-03-30 03:01:00,38.1,37.1,30.24,East,99,0.0,0.0,96,0.00,,,0.00,Wunderground v.1.15,2013-03-30 08:01:00,
2013-03-30 03:11:00,38.0,37.0,30.24,East,98,0.0,0.0,96,0.00,,,0.00,Wunderground v.1.15,2013-03-30 08:11:00,
2013-03-30 03:21:00,37.9,36.9,30.24,East,98,0.0,0.0,96,0.00,,,0.00,Wunderground v.1.15,2013-03-30 08:21:00,
2013-03-30 03:36:00,37.9,36.9,30.24,East,99,0.0,0.0,96,0.00,,,0.00,Wunderground v.1.15,2013-03-30 08:36:00,
2013-03-30 03:46:00,37.7,36.7,30.24,East,98,0.0,0.0,96,0.00,,,0.00,Wunderground v.1.15,2013-03-30 08:46:00,
2013-03-30 03:51:00,37.5,36.5,30.24,East,98,0.0,0.0,96,0.00,,,0.00,Wunderground v.1.15,2013-03-30 08:51:00,
2013-03-30 04:01:00,37.5,36.5,30.23,East,99,0.0,0.0,96,0.00,,,0.00,Wunderground v.1.15,2013-03-30 09:01:00,
2013-03-30 04:11:00,37.2,36.2,30.23,East,98,0.0,0.0,96,0.00,,,0.00,Wunderground v.1.15,2013-03-30 09:11:00,
2013-03-30 04:21:00,37.1,36.1,30.21,East,98,0.0,0.0,96,0.00,,,0.00,Wunderground v.1.15,2013-03-30 09:21:00,
2013-03-30 04:26:00,37.2,36.4,30.21,East,99,0.0,0.0,97,0.00,,,0.00,Wunderground v.1.15,2013-03-30 09:26:00,
2013-03-30 04:31:00,37.1,36.1,30.21,East,98,0.0,0.0,96,0.00,,,0.00,Wunderground v.1.15,2013-03-30 09:31:00,
2013-03-30 04:36:00,37.0,36.0,30.21,East,98,0.0,0.0,96,0.00,,,0.00,Wunderground v.1.15,2013-03-30 09:36:00,
2013-03-30 04:41:00,36.9,35.9,30.21,East,98,0.0,0.0,96,0.00,,,0.00,Wunderground v.1.15,2013-03-30 09:41:00,
2013-03-30 04:46:00,36.8,35.8,30.22,East,99,0.0,0.0,96,0.00,,,0.00,Wunderground v.1.15,2013-03-30 09:46:00,
2013-03-30 04:56:00,36.5,35.5,30.21,East,98,0.0,0.0,96,0.00,,,0.00,Wunderground v.1.15,2013-03-30 09:56:00,
2013-03-30 05:01:00,36.4,35.4,30.21,East,99,0.0,0.0,96,0.00,,,0.00,Wunderground v.1.15,2013-03-30 10:01:00,
2013-03-30 05:06:00,36.5,35.7,30.22,East,98,0.0,0.0,97,0.00,,,0.00,Wunderground v.1.15,2013-03-30 10:06:00,
2013-03-30 05:16:00,36.8,36.0,30.22,East,99,0.0,0.0,97,0.00,,,0.00,Wunderground v.1.15,2013-03-30 10:16:00,
2013-03-30 05:21:00,37.0,36.2,30.21,East,98,0.0,0.0,97,0.00,,,0.00,Wunderground v.1.15,2013-03-30 10:21:00,
2013-03-30 05:26:00,37.1,36.3,30.21,East,98,0.0,0.0,97,0.00,,,0.00,Wunderground v.1.15,2013-03-30 10:26:00,
2013-03-30 05:36:00,37.6,36.8,30.21,East,99,0.0,0.0,97,0.00,,,0.00,Wunderground v.1.15,2013-03-30 10:36:00,
2013-03-30 05:41:00,37.8,37.0,30.21,East,98,0.0,0.0,97,0.00,,,0.00,Wunderground v.1.15,2013-03-30 10:41:00,
2013-03-30 05:46:00,38.0,37.2,30.21,East,99,0.0,0.0,97,0.00,,,0.00,Wunderground v.1.15,2013-03-30 10:46:00,
2013-03-30 05:51:00,38.3,37.5,30.21,East,99,0.0,0.0,97,0.00,,,0.00,Wunderground v.1.15,2013-03-30 10:51:00,
2013-03-30 06:21:00,38.9,38.1,30.20,East,98,0.0,0.0,97,0.00,,,0.00,Wunderground v.1.15,2013-03-30 11:21:00,
2013-03-30 06:26:00,38.9,38.1,30.20,East,98,0.0,0.0,97,0.00,,,0.00,Wunderground v.1.15,2013-03-30 11:26:00,
2013-03-30 06:31:00,38.9,38.1,30.20,East,99,0.0,0.0,97,0.00,,,0.00,Wunderground v.1.15,2013-03-30 11:31:00,
2013-03-30 06:36:00,38.9,38.1,30.20,East,98,0.0,0.0,97,0.00,,,0.00,Wunderground v.1.15,2013-03-30 11:36:00,
2013-03-30 06:51:00,39.0,38.2,30.20,East,98,0.0,0.0,97,0.00,,,0.00,Wunderground v.1.15,2013-03-30 11:51:00,
2013-03-30 07:16:00,39.7,39.2,30.21,East,98,0.0,0.0,98,0.00,,,0.00,Wunderground v.1.15,2013-03-30 12:16:00,
2013-03-30 07:31:00,39.9,39.4,30.22,SSE,162,0.0,0.0,98,0.00,,,0.00,Wunderground v.1.15,2013-03-30 12:31:00,
2013-03-30 07:41:00,40.0,39.5,30.22,SE,134,0.0,0.0,98,0.00,,,0.00,Wunderground v.1.15,2013-03-30 12:41:00,
2013-03-30 07:46:00,40.0,39.5,30.23,SE,131,0.0,0.0,98,0.00,,,0.00,Wunderground v.1.15,2013-03-30 12:46:00,
2013-03-30 07:51:00,40.1,39.6,30.22,SE,131,0.0,0.0,98,0.00,,,0.00,Wunderground v.1.15,2013-03-30 12:51:00,
2013-03-30 08:01:00,40.5,40.0,30.22,SE,131,0.0,0.0,98,0.00,,,0.00,Wunderground v.1.15,2013-03-30 13:01:00,
2013-03-30 08:06:00,40.6,40.1,30.22,ESE,107,0.0,1.0,98,0.00,,,0.00,Wunderground v.1.15,2013-03-30 13:06:00,
2013-03-30 08:11:00,40.6,40.1,30.22,SE,127,0.0,0.0,98,0.00,,,0.00,Wunderground v.1.15,2013-03-30 13:11:00,
2013-03-30 08:21:00,40.8,40.3,30.22,East,95,0.0,0.0,98,0.00,,,0.00,Wunderground v.1.15,2013-03-30 13:21:00,
2013-03-30 08:26:00,41.1,40.6,30.22,East,100,0.0,2.0,98,0.00,,,0.00,Wunderground v.1.15,2013-03-30 13:26:00,
2013-03-30 08:36:00,41.6,41.1,30.21,SSW,211,0.0,0.0,98,0.00,,,0.00,Wunderground v.1.15,2013-03-30 13:36:00,
2013-03-30 08:41:00,41.8,41.3,30.21,ESE,107,0.0,0.0,98,0.00,,,0.00,Wunderground v.1.15,2013-03-30 13:41:00,
2013-03-30 08:51:00,41.9,41.4,30.20,SE,141,0.0,0.0,98,0.00,,,0.00,Wunderground v.1.15,2013-03-30 13:51:00,
2013-03-30 09:01:00,42.3,41.8,30.20,ESE,114,0.0,1.0,98,0.00,,,0.00,Wunderground v.1.15,2013-03-30 14:01:00,
2013-03-30 09:06:00,42.4,41.9,30.20,ESE,109,0.0,1.0,98,0.00,,,0.00,Wunderground v.1.15,2013-03-30 14:06:00,
2013-03-30 09:11:00,42.5,42.0,30.19,SE,124,0.0,1.0,98,0.00,,,0.00,Wunderground v.1.15,2013-03-30 14:11:00,
2013-03-30 09:21:00,42.6,42.1,30.19,SSW,204,0.0,0.0,98,0.00,,,0.00,Wunderground v.1.15,2013-03-30 14:21:00,
2013-03-30 09:26:00,43.0,42.5,30.19,SE,129,0.0,0.0,98,0.00,,,0.00,Wunderground v.1.15,2013-03-30 14:26:00,
2013-03-30 09:36:00,43.6,43.1,30.19,SE,131,0.0,0.0,98,0.00,,,0.00,Wunderground v.1.15,2013-03-30 14:36:00,
2013-03-30 09:46:00,43.9,43.4,30.18,SE,131,0.0,0.0,98,0.00,,,0.00,Wunderground v.1.15,2013-03-30 14:46:00,
2013-03-30 09:56:00,43.8,43.3,30.18,ESE,109,0.0,0.0,98,0.00,,,0.00,Wunderground v.1.15,2013-03-30 14:56:00,
2013-03-30 10:06:00,44.3,43.8,30.18,South,170,0.0,0.0,98,0.00,,,0.00,Wunderground v.1.15,2013-03-30 15:06:00,
2013-03-30 10:16:00,44.6,44.1,30.17,East,101,0.0,3.0,98,0.00,,,0.00,Wunderground v.1.15,2013-03-30 15:16:00,
2013-03-30 10:26:00,44.9,44.1,30.17,ESE,121,1.0,1.0,97,0.00,,,0.00,Wunderground v.1.15,2013-03-30 15:26:00,
2013-03-30 10:31:00,45.1,44.3,30.17,East,96,0.0,0.0,97,0.00,,,0.00,Wunderground v.1.15,2013-03-30 15:31:00,
2013-03-30 10:36:00,45.4,44.3,30.17,SSE,158,0.0,0.0,96,0.00,,,0.00,Wunderground v.1.15,2013-03-30 15:36:00,
2013-03-30 10:41:00,45.7,44.6,30.16,SE,127,0.0,0.0,96,0.00,,,0.00,Wunderground v.1.15,2013-03-30 15:41:00,
2013-03-30 10:56:00,47.1,45.2,30.16,ESE,121,0.0,1.0,93,0.00,,,0.00,Wunderground v.1.15,2013-03-30 15:56:00,
2013-03-30 11:01:00,47.6,45.4,30.16,SE,137,0.0,0.0,92,0.00,,,0.00,Wunderground v.1.15,2013-03-30 16:01:00,
2013-03-30 11:11:00,49.0,45.6,30.16,SE,140,0.0,3.0,88,0.00,,,0.00,Wunderground v.1.15,2013-03-30 16:11:00,
2013-03-30 11:16:00,49.3,45.0,30.16,ESE,105,1.0,3.0,85,0.00,,,0.00,Wunderground v.1.15,2013-03-30 16:16:00,
2013-03-30 11:36:00,50.5,44.2,30.15,ESE,121,1.0,2.0,79,0.00,,,0.00,Wunderground v.1.15,2013-03-30 16:36:00,
2013-03-30 11:41:00,50.6,44.3,30.14,SE,141,1.0,1.0,79,0.00,,,0.00,Wunderground v.1.15,2013-03-30 16:41:00,
2013-03-30 11:46:00,50.9,43.9,30.14,ESE,113,1.0,2.0,77,0.00,,,0.00,Wunderground v.1.15,2013-03-30 16:46:00,
2013-03-30 11:51:00,51.0,44.4,30.14,East,85,1.0,1.0,78,0.00,,,0.00,Wunderground v.1.15,2013-03-30 16:51:00,
2013-03-30 12:01:00,51.1,44.1,30.14,SE,132,1.0,1.0,77,0.00,,,0.00,Wunderground v.1.15,2013-03-30 17:01:00,
2013-03-30 12:06:00,51.5,44.5,30.14,SSE,149,1.0,1.0,77,0.00,,,0.00,Wunderground v.1.15,2013-03-30 17:06:00,
2013-03-30 12:11:00,51.9,44.9,30.13,East,79,1.0,1.0,77,0.00,,,0.00,Wunderground v.1.15,2013-03-30 17:11:00,
2013-03-30 12:21:00,52.1,44.4,30.13,ESE,113,1.0,2.0,75,0.00,,,0.00,Wunderground v.1.15,2013-03-30 17:21:00,
2013-03-30 12:31:00,52.1,45.4,30.12,SSE,151,2.0,2.0,78,0.00,,,0.00,Wunderground v.1.15,2013-03-30 17:31:00,
2013-03-30 12:41:00,52.6,44.9,30.11,ESE,123,2.0,2.0,75,0.00,,,0.00,Wunderground v.1.15,2013-03-30 17:41:00,
2013-03-30 12:46:00,53.3,45.2,30.11,ESE,118,2.0,2.0,74,0.00,,,0.00,Wunderground v.1.15,2013-03-30 17:46:00,
2013-03-30 12:51:00,53.6,44.8,30.10,ESE,105,1.0,2.0,72,0.00,,,0.00,Wunderground v.1.15,2013-03-30 17:51:00,
2013-03-30 12:56:00,53.8,44.6,30.10,East,86,2.0,2.0,71,0.00,,,0.00,Wunderground v.1.15,2013-03-30 17:56:00,
2013-03-30 13:21:00,53.7,44.5,30.09,West,276,2.0,2.0,71,0.00,,,0.00,Wunderground v.1.15,2013-03-30 18:21:00,
2013-03-30 13:41:00,52.9,44.5,30.08,SE,129,2.0,2.0,73,0.00,,,0.00,Wunderground v.1.15,2013-03-30 18:41:00,
2013-03-30 13:56:00,52.7,44.6,30.08,East,98,1.0,4.0,74,0.00,,,0.00,Wunderground v.1.15,2013-03-30 18:56:00,
2013-03-30 14:01:00,52.2,44.5,30.08,ESE,123,2.0,2.0,75,0.00,,,0.00,Wunderground v.1.15,2013-03-30 19:01:00,
2013-03-30 14:06:00,52.1,44.8,30.08,ESE,107,2.0,2.0,76,0.00,,,0.00,Wunderground v.1.15,2013-03-30 19:06:00,
2013-03-30 14:11:00,52.0,44.7,30.08,East,98,1.0,4.0,76,0.00,,,0.00,Wunderground v.1.15,2013-03-30 19:11:00,
2013-03-30 14:16:00,51.9,44.9,30.08,ESE,113,1.0,4.0,77,0.00,,,0.00,Wunderground v.1.15,2013-03-30 19:16:00,
2013-03-30 14:26:00,51.9,44.9,30.07,SE,143,1.0,3.0,77,0.00,,,0.00,Wunderground v.1.15,2013-03-30 19:26:00,
2013-03-30 14:31:00,52.1,45.1,30.06,ESE,107,1.0,1.0,77,0.00,,,0.00,Wunderground v.1.15,2013-03-30 19:31:00,
2013-03-30 14:36:00,52.1,45.1,30.06,ESE,110,1.0,1.0,77,0.00,,,0.00,Wunderground v.1.15,2013-03-30 19:36:00,
2013-03-30 14:41:00,52.2,45.2,30.06,SE,138,1.0,1.0,77,0.00,,,0.00,Wunderground v.1.15,2013-03-30 19:41:00,
2013-03-30 14:46:00,52.0,45.0,30.06,WNW,299,1.0,1.0,77,0.00,,,0.00,Wunderground v.1.15,2013-03-30 19:46:00,
2013-03-30 14:56:00,52.1,45.1,30.06,SE,124,0.0,1.0,77,0.00,,,0.00,Wunderground v.1.15,2013-03-30 19:56:00,
2013-03-30 15:06:00,52.2,45.5,30.05,ESE,112,1.0,1.0,78,0.00,,,0.00,Wunderground v.1.15,2013-03-30 20:06:00,
2013-03-30 15:16:00,52.4,45.7,30.05,ESE,111,1.0,1.0,78,0.00,,,0.00,Wunderground v.1.15,2013-03-30 20:16:00,
2013-03-30 15:31:00,51.9,45.9,30.04,East,91,1.0,1.0,80,0.00,,,0.00,Wunderground v.1.15,2013-03-30 20:31:00,
2013-03-30 15:36:00,51.8,46.2,30.04,East,92,1.0,1.0,81,0.00,,,0.00,Wunderground v.1.15,2013-03-30 20:36:00,
2013-03-30 15:46:00,51.5,46.8,30.04,East,95,0.0,0.0,84,0.00,,,0.01,Wunderground v.1.15,2013-03-30 20:46:00,
2013-03-30 15:56:00,51.1,47.1,30.03,WSW,248,0.0,0.0,86,0.00,,,0.01,Wunderground v.1.15,2013-03-30 20:56:00,
2013-03-30 16:16:00,50.4,47.6,30.02,ESE,123,0.0,1.0,90,0.00,,,0.02,Wunderground v.1.15,2013-03-30 21:16:00,
2013-03-30 16:21:00,50.4,47.6,30.02,ESE,123,0.0,0.0,90,0.00,,,0.02,Wunderground v.1.15,2013-03-30 21:21:00,
2013-03-30 16:26:00,50.3,47.5,30.02,SSE,152,0.0,0.0,90,0.00,,,0.02,Wunderground v.1.15,2013-03-30 21:26:00,
2013-03-30 16:31:00,50.2,47.7,30.01,SE,146,0.0,0.0,91,0.00,,,0.03,Wunderground v.1.15,2013-03-30 21:31:00,
2013-03-30 16:41:00,49.9,47.7,30.01,SSE,148,0.0,0.0,92,0.07,,,0.05,Wunderground v.1.15,2013-03-30 21:41:00,
2013-03-30 16:51:00,49.7,47.5,30.01,ESE,112,0.0,0.0,92,0.06,,,0.06,Wunderground v.1.15,2013-03-30 21:51:00,
2013-03-30 16:56:00,49.6,47.4,30.01,East,89,1.0,2.0,92,0.06,,,0.06,Wunderground v.1.15,2013-03-30 21:56:00,
2013-03-30 17:21:00,49.1,47.2,30.00,East,98,0.0,0.0,93,0.10,,,0.09,Wunderground v.1.15,2013-03-30 22:21:00,
2013-03-30 17:31:00,48.8,46.9,30.00,South,177,0.0,0.0,93,0.08,,,0.10,Wunderground v.1.15,2013-03-30 22:31:00,
2013-03-30 17:41:00,48.7,46.5,30.00,SE,132,0.0,0.0,92,0.06,,,0.11,Wunderground v.1.15,2013-03-30 22:41:00,
2013-03-30 17:46:00,48.7,46.5,30.00,ESE,122,0.0,0.0,92,0.06,,,0.11,Wunderground v.1.15,2013-03-30 22:46:00,
2013-03-30 17:56:00,48.7,46.8,30.00,ESE,123,0.0,0.0,93,0.00,,,0.11,Wunderground v.1.15,2013-03-30 22:56:00,
2013-03-30 18:01:00,48.7,46.8,30.00,ESE,123,0.0,0.0,93,0.00,,,0.11,Wunderground v.1.15,2013-03-30 23:01:00,
2013-03-30 18:11:00,48.7,47.1,30.00,ESE,123,0.0,0.0,94,0.00,,,0.11,Wunderground v.1.15,2013-03-30 23:11:00,
2013-03-30 18:16:00,48.6,47.0,30.00,ESE,122,0.0,0.0,94,0.00,,,0.11,Wunderground v.1.15,2013-03-30 23:16:00,
2013-03-30 18:31:00,48.5,46.9,29.99,ESE,111,0.0,0.0,94,0.00,,,0.11,Wunderground v.1.15,2013-03-30 23:31:00,
2013-03-30 18:41:00,48.5,46.9,29.99,ESE,102,0.0,0.0,94,0.00,,,0.11,Wunderground v.1.15,2013-03-30 23:41:00,
2013-03-30 18:46:00,48.5,46.9,29.99,ESE,102,0.0,0.0,94,0.00,,,0.11,Wunderground v.1.15,2013-03-30 23:46:00,
2013-03-30 18:51:00,48.5,47.1,29.98,ESE,102,0.0,0.0,95,0.00,,,0.11,Wunderground v.1.15,2013-03-30 23:51:00,
2013-03-30 18:56:00,48.4,47.0,29.98,East,100,0.0,0.0,95,0.00,,,0.11,Wunderground v.1.15,2013-03-30 23:56:00,
2013-03-30 19:06:00,48.4,47.0,29.98,ESE,109,0.0,0.0,95,0.00,,,0.12,Wunderground v.1.15,2013-03-31 00:06:00,
2013-03-30 19:11:00,48.4,46.8,29.98,ESE,109,0.0,0.0,94,0.00,,,0.12,Wunderground v.1.15,2013-03-31 00:11:00,
2013-03-30 19:36:00,48.2,46.6,29.98,ESE,110,0.0,0.0,94,0.00,,,0.12,Wunderground v.1.15,2013-03-31 00:36:00,
2013-03-30 19:46:00,48.1,46.5,29.98,ESE,110,0.0,0.0,94,0.00,,,0.12,Wunderground v.1.15,2013-03-31 00:46:00,
2013-03-30 19:56:00,48.0,46.4,29.98,ESE,108,0.0,0.0,94,0.00,,,0.12,Wunderground v.1.15,2013-03-31 00:56:00,
2013-03-30 20:01:00,47.9,46.3,29.98,ESE,109,0.0,0.0,94,0.00,,,0.12,Wunderground v.1.15,2013-03-31 01:01:00,
2013-03-30 20:06:00,47.9,46.3,29.97,WSW,257,0.0,0.0,94,0.00,,,0.12,Wunderground v.1.15,2013-03-31 01:06:00,
2013-03-30 20:11:00,47.9,46.3,29.97,SSW,198,0.0,0.0,94,0.00,,,0.12,Wunderground v.1.15,2013-03-31 01:11:00,
2013-03-30 20:16:00,47.8,46.2,29.97,SE,132,0.0,0.0,94,0.00,,,0.12,Wunderground v.1.15,2013-03-31 01:16:00,
2013-03-30 20:31:00,47.8,46.2,29.97,SE,125,0.0,0.0,94,0.00,,,0.12,Wunderground v.1.15,2013-03-31 01:31:00,
2013-03-30 20:36:00,47.8,46.2,29.97,SE,125,0.0,0.0,94,0.00,,,0.12,Wunderground v.1.15,2013-03-31 01:36:00,
2013-03-30 20:41:00,47.8,46.2,29.98,SE,125,0.0,0.0,94,0.00,,,0.12,Wunderground v.1.15,2013-03-31 01:41:00,
2013-03-30 20:46:00,47.7,46.1,29.98,SE,127,0.0,0.0,94,0.00,,,0.12,Wunderground v.1.15,2013-03-31 01:46:00,
2013-03-30 20:51:00,47.7,46.1,29.98,South,188,0.0,0.0,94,0.00,,,0.12,Wunderground v.1.15,2013-03-31 01:51:00,
2013-03-30 20:56:00,47.7,46.3,29.98,South,189,0.0,0.0,95,0.00,,,0.12,Wunderground v.1.15,2013-03-31 01:56:00,
2013-03-30 21:01:00,47.8,46.4,29.98,South,188,0.0,0.0,95,0.00,,,0.12,Wunderground v.1.15,2013-03-31 02:01:00,
2013-03-30 21:16:00,47.7,46.3,29.98,SE,132,0.0,1.0,95,0.00,,,0.12,Wunderground v.1.15,2013-03-31 02:16:00,
2013-03-30 21:26:00,47.8,46.4,29.98,SE,132,0.0,0.0,95,0.00,,,0.12,Wunderground v.1.15,2013-03-31 02:26:00,
2013-03-30 21:31:00,47.7,46.3,29.98,SE,132,0.0,0.0,95,0.00,,,0.12,Wunderground v.1.15,2013-03-31 02:31:00,
2013-03-30 21:36:00,47.7,46.3,29.98,SE,132,0.0,0.0,95,0.00,,,0.12,Wunderground v.1.15,2013-03-31 02:36:00,
2013-03-30 21:46:00,47.6,46.2,29.98,SE,132,0.0,0.0,95,0.00,,,0.12,Wunderground v.1.15,2013-03-31 02:46:00,
2013-03-30 21:56:00,47.6,46.5,29.98,SE,132,0.0,0.0,96,0.00,,,0.12,Wunderground v.1.15,2013-03-31 02:56:00,
2013-03-30 22:06:00,47.6,46.5,29.98,SE,132,0.0,0.0,96,0.00,,,0.12,Wunderground v.1.15,2013-03-31 03:06:00,
2013-03-30 22:11:00,47.6,46.5,29.98,SE,132,0.0,0.0,96,0.00,,,0.12,Wunderground v.1.15,2013-03-31 03:11:00,
2013-03-30 22:21:00,47.6,46.5,29.98,SE,132,0.0,0.0,96,0.00,,,0.12,Wunderground v.1.15,2013-03-31 03:21:00,
2013-03-30 22:31:00,47.7,46.6,29.98,SE,134,0.0,0.0,96,0.00,,,0.12,Wunderground v.1.15,2013-03-31 03:31:00,
2013-03-30 22:46:00,47.7,46.6,29.98,SE,134,0.0,0.0,96,0.00,,,0.12,Wunderground v.1.15,2013-03-31 03:46:00,
2013-03-30 22:51:00,47.7,46.6,29.98,SE,134,0.0,0.0,96,0.00,,,0.12,Wunderground v.1.15,2013-03-31 03:51:00,
2013-03-30 22:56:00,47.7,46.6,29.97,SE,134,0.0,0.0,96,0.00,,,0.12,Wunderground v.1.15,2013-03-31 03:56:00,
2013-03-30 23:06:00,47.7,46.6,29.97,SSE,158,0.0,0.0,96,0.00,,,0.12,Wunderground v.1.15,2013-03-31 04:06:00,
2013-03-30 23:16:00,47.7,46.6,29.97,SSE,158,0.0,0.0,96,0.00,,,0.12,Wunderground v.1.15,2013-03-31 04:16:00,
2013-03-30 23:26:00,47.7,46.6,29.97,SSE,158,0.0,0.0,96,0.00,,,0.12,Wunderground v.1.15,2013-03-31 04:26:00,
2013-03-30 23:31:00,47.7,46.6,29.97,SSE,158,0.0,0.0,96,0.00,,,0.12,Wunderground v.1.15,2013-03-31 04:31:00,
2013-03-30 23:36:00,47.8,46.7,29.97,SSE,158,0.0,0.0,96,0.00,,,0.12,Wunderground v.1.15,2013-03-31 04:36:00,
2013-03-30 23:41:00,47.8,46.7,29.96,SSE,158,0.0,0.0,96,0.00,,,0.12,Wunderground v.1.15,2013-03-31 04:41:00,
2013-03-30 23:51:00,47.8,46.7,29.96,SSE,156,0.0,0.0,96,0.00,,,0.12,Wunderground v.1.15,2013-03-31 04:51:00,